Time;durP1;ratioP1;P1;durP2;ratioP2;P2;SDS_P1;SDS_P2;PMS_P1;PMS_P2;Temp;Humidity;BMP_temperature;BMP_pressure;BME280_temperature;BME280_humidity;BME280_pressure;Samples;Min_cycle;Max_cycle;Signal;HPM_P1;HPM_P2
2023/12/04 00:00:17;;;;;;;9.55;4.13;;;-6.90;99.90;;;;;;5009200;28;20245;-71
2023/12/04 00:02:43;;;;;;;5.10;2.92;;;-6.90;99.90;;;;;;5008907;28;20698;-71
2023/12/04 00:05:10;;;;;;;1.90;1.50;;;-6.90;99.90;;;;;;5008644;28;20210;-71
2023/12/04 00:07:37;;;;;;;3.58;3.03;;;-6.90;99.90;;;;;;5008027;28;20249;-70
2023/12/04 00:10:04;;;;;;;5.07;2.95;;;-6.90;99.90;;;;;;5009911;28;20199;-72
2023/12/04 00:12:32;;;;;;;1.73;1.42;;;-6.90;99.90;;;;;;5015282;28;20285;-71
2023/12/04 00:14:59;;;;;;;2.05;1.95;;;-6.90;99.90;;;;;;5013524;28;20213;-71
2023/12/04 04:31:11;;;;;;;1.63;1.52;;;-6.50;99.90;;;;;;5852594;22;21342;-94
2023/12/04 04:33:38;;;;;;;4.93;2.45;;;-6.40;99.90;;;;;;5054254;28;20230;-94
2023/12/04 04:36:06;;;;;;;4.45;2.63;;;-6.50;99.90;;;;;;5055620;28;20224;-93
2023/12/04 04:38:32;;;;;;;2.90;2.22;;;-6.50;99.90;;;;;;5053660;28;20229;-93
2023/12/04 04:40:59;;;;;;;6.28;2.42;;;-6.50;99.90;;;;;;5059028;28;20212;-96
2023/12/04 04:43:26;;;;;;;3.90;2.50;;;-6.40;99.90;;;;;;5036859;22;20235;-72
2023/12/04 04:45:53;;;;;;;3.40;2.80;;;-6.30;99.90;;;;;;4994597;28;20207;-72
2023/12/04 04:48:21;;;;;;;3.03;2.72;;;-6.30;99.90;;;;;;4991760;28;20233;-72
2023/12/04 04:50:48;;;;;;;1.45;1.30;;;-6.30;99.90;;;;;;4995207;28;20238;-73
2023/12/04 04:53:14;;;;;;;3.75;2.75;;;-6.20;99.90;;;;;;4993820;28;20215;-74
2023/12/04 04:55:42;;;;;;;2.33;2.03;;;-6.10;99.90;;;;;;4994005;28;20210;-73
2023/12/04 04:58:09;;;;;;;2.75;2.33;;;-5.90;99.90;;;;;;4996652;28;20276;-71
2023/12/04 05:00:35;;;;;;;4.28;3.08;;;-5.80;99.90;;;;;;4993204;28;20227;-71
2023/12/04 05:03:02;;;;;;;3.08;2.55;;;-5.70;99.90;;;;;;4992097;28;20210;-71
2023/12/04 05:05:30;;;;;;;3.55;3.25;;;-5.60;99.90;;;;;;4993290;28;20676;-71
2023/12/04 05:07:57;;;;;;;6.18;2.00;;;-5.50;99.90;;;;;;4992985;28;20215;-70
2023/12/04 05:10:23;;;;;;;3.85;2.47;;;-5.40;99.90;;;;;;4993565;28;20207;-71
2023/12/04 05:12:50;;;;;;;6.18;3.15;;;-5.40;99.90;;;;;;4995215;28;20203;-71
2023/12/04 05:15:17;;;;;;;2.13;2.03;;;-5.30;99.90;;;;;;4992945;28;20199;-71
2023/12/04 05:17:43;;;;;;;2.60;2.40;;;-5.40;99.90;;;;;;4993519;28;20203;-71
2023/12/04 05:20:11;;;;;;;4.15;3.83;;;-5.30;99.90;;;;;;4993885;28;20600;-71
2023/12/04 05:22:39;;;;;;;3.50;2.80;;;-5.30;99.90;;;;;;4990605;28;20303;-71
2023/12/04 05:25:07;;;;;;;2.70;2.47;;;-5.30;99.90;;;;;;4992319;28;20226;-71
2023/12/04 05:27:33;;;;;;;3.25;2.95;;;-5.30;99.90;;;;;;4992325;28;20218;-71
2023/12/04 05:30:00;;;;;;;3.20;2.90;;;-5.30;99.90;;;;;;4995033;28;20199;-74
2023/12/04 05:32:27;;;;;;;2.40;2.15;;;-5.30;99.90;;;;;;5010285;28;20227;-74
2023/12/04 05:34:53;;;;;;;3.38;3.08;;;-5.30;99.90;;;;;;5008402;28;20214;-73
2023/12/04 05:37:20;;;;;;;1.70;1.60;;;-5.30;99.90;;;;;;5009080;28;20198;-74
2023/12/04 05:39:48;;;;;;;3.90;3.28;;;-5.30;99.90;;;;;;5008219;28;20699;-74
2023/12/04 05:42:15;;;;;;;3.40;2.70;;;-5.30;99.90;;;;;;4995634;28;20225;-73
2023/12/04 05:44:41;;;;;;;4.20;3.90;;;-5.30;99.90;;;;;;5009142;28;20210;-73
2023/12/04 05:47:08;;;;;;;7.55;5.18;;;-5.30;99.90;;;;;;5008356;28;20213;-73
2023/12/04 05:49:35;;;;;;;5.32;3.00;;;-5.30;99.90;;;;;;5009531;28;20258;-73
2023/12/04 05:52:02;;;;;;;2.13;1.90;;;-5.30;99.90;;;;;;5008366;28;20237;-73
2023/12/04 05:54:29;;;;;;;2.80;2.55;;;-5.30;99.90;;;;;;5009789;28;20580;-73
2023/12/04 05:56:57;;;;;;;2.20;2.00;;;-5.40;99.90;;;;;;5007988;28;20203;-73
2023/12/04 05:59:23;;;;;;;2.60;2.28;;;-5.40;99.90;;;;;;5009763;28;20209;-71
2023/12/04 06:01:50;;;;;;;6.05;4.53;;;-5.40;99.90;;;;;;5008472;28;20234;-70
2023/12/04 06:04:17;;;;;;;5.32;3.28;;;-5.30;99.90;;;;;;5009863;28;20209;-70
2023/12/04 06:06:44;;;;;;;4.03;2.80;;;-5.30;99.90;;;;;;5008999;28;20206;-71
2023/12/04 06:09:11;;;;;;;9.02;3.50;;;-5.30;99.90;;;;;;5009464;28;20218;-70
2023/12/04 06:11:37;;;;;;;3.47;2.67;;;-5.30;99.90;;;;;;5009770;28;20234;-70
2023/12/04 06:14:05;;;;;;;3.75;2.85;;;-5.30;99.90;;;;;;5008930;28;20602;-70
2023/12/04 06:16:32;;;;;;;3.40;3.05;;;-5.30;99.90;;;;;;5009538;28;20202;-70
2023/12/04 06:18:59;;;;;;;4.35;3.10;;;-5.30;99.90;;;;;;5008213;28;20211;-70
2023/12/04 06:21:26;;;;;;;2.53;2.30;;;-5.20;99.90;;;;;;5010097;28;20226;-70
2023/12/04 06:23:53;;;;;;;4.50;3.42;;;-5.20;99.90;;;;;;5009017;28;20210;-73
2023/12/04 06:26:20;;;;;;;6.80;3.28;;;-5.20;99.90;;;;;;5010011;28;20689;-73
2023/12/04 06:28:47;;;;;;;6.00;2.70;;;-5.10;99.90;;;;;;5009160;28;20693;-73
2023/12/04 06:31:16;;;;;;;2.80;2.60;;;-5.10;99.90;;;;;;4995330;28;20227;-73
2023/12/04 06:33:43;;;;;;;3.50;2.03;;;-5.10;99.90;;;;;;5010024;28;20214;-73
2023/12/04 06:36:13;;;;;;;3.85;2.17;;;-5.00;99.90;;;;;;5009719;28;20198;-72
2023/12/04 06:38:41;;;;;;;10.52;5.85;;;-5.00;99.90;;;;;;5008807;28;20451;-73
2023/12/04 06:41:09;;;;;;;3.90;3.45;;;-4.90;99.90;;;;;;5009499;28;20215;-74
2023/12/04 06:43:37;;;;;;;6.90;3.08;;;-4.90;99.90;;;;;;5009373;28;20214;-73
2023/12/04 06:46:05;;;;;;;3.00;2.80;;;-4.90;99.90;;;;;;5009189;28;20206;-70
2023/12/04 06:48:34;;;;;;;2.90;2.70;;;-4.80;99.90;;;;;;5009934;28;20212;-71
2023/12/04 06:51:00;;;;;;;5.22;2.53;;;-4.60;99.90;;;;;;5009558;28;20222;-71
2023/12/04 06:53:27;;;;;;;3.42;2.25;;;-4.60;99.90;;;;;;5009514;28;20659;-71
2023/12/04 06:55:54;;;;;;;5.85;3.38;;;-4.80;99.90;;;;;;5009779;28;20206;-71
2023/12/04 06:58:21;;;;;;;2.85;2.13;;;-4.90;99.90;;;;;;5009938;28;20202;-70
2023/12/04 07:00:48;;;;;;;2.50;2.30;;;-4.90;99.90;;;;;;5009684;28;20222;-71
2023/12/04 07:03:15;;;;;;;3.92;2.95;;;-4.90;99.90;;;;;;4994664;28;20206;-71
2023/12/04 07:05:43;;;;;;;4.35;2.92;;;-4.80;99.90;;;;;;5010365;28;20656;-71
2023/12/04 07:08:10;;;;;;;3.55;3.28;;;-4.80;99.90;;;;;;5009891;28;20663;-71
2023/12/04 07:10:36;;;;;;;2.72;2.13;;;-4.80;99.90;;;;;;5010612;28;20225;-71
2023/12/04 07:13:03;;;;;;;3.35;3.05;;;-4.80;99.90;;;;;;5010614;28;20225;-71
2023/12/04 07:15:30;;;;;;;2.78;2.50;;;-4.70;99.90;;;;;;5004909;28;20391;-71
2023/12/04 07:17:57;;;;;;;3.25;2.17;;;-4.70;99.90;;;;;;4990770;28;20219;-70
2023/12/04 07:20:24;;;;;;;3.88;2.88;;;-4.60;99.90;;;;;;4991478;28;20582;-71
2023/12/04 07:22:52;;;;;;;3.63;2.53;;;-4.60;99.90;;;;;;4991187;28;20211;-71
2023/12/04 07:25:18;;;;;;;5.80;2.65;;;-4.60;99.90;;;;;;4991325;28;20207;-71
2023/12/04 07:27:45;;;;;;;2.85;2.20;;;-4.50;99.90;;;;;;4990911;28;20203;-70
2023/12/04 07:30:12;;;;;;;2.72;1.88;;;-4.50;99.90;;;;;;4991310;28;20248;-71
2023/12/04 07:32:39;;;;;;;4.40;2.83;;;-4.40;99.90;;;;;;4991218;28;20199;-71
2023/12/04 07:35:07;;;;;;;4.20;2.08;;;-4.40;99.90;;;;;;4992861;28;20203;-71
2023/12/04 07:37:34;;;;;;;5.78;3.13;;;-4.30;99.90;;;;;;4994801;28;20218;-71
2023/12/04 07:40:05;;;;;;;5.18;2.97;;;-4.30;99.90;;;;;;4995513;28;20667;-70
2023/12/04 07:42:32;;;;;;;2.75;1.75;;;-4.20;99.90;;;;;;4995168;28;20742;-70
2023/12/04 07:44:58;;;;;;;3.47;3.00;;;-4.20;99.90;;;;;;4995528;28;20485;-71
2023/12/04 07:47:25;;;;;;;4.28;2.85;;;-4.20;99.90;;;;;;4994892;28;20199;-71
2023/12/04 07:49:52;;;;;;;4.28;3.83;;;-4.10;99.90;;;;;;4995392;28;20223;-70
2023/12/04 07:52:18;;;;;;;4.47;2.88;;;-4.10;99.90;;;;;;4995353;28;20230;-71
2023/12/04 07:54:45;;;;;;;4.57;4.13;;;-4.00;99.90;;;;;;4995276;28;20258;-72
2023/12/04 07:57:14;;;;;;;6.35;3.75;;;-4.00;99.90;;;;;;4995409;28;20606;-70
2023/12/04 07:59:41;;;;;;;2.60;2.40;;;-3.90;99.90;;;;;;4995230;28;20299;-71
2023/12/04 08:02:09;;;;;;;3.80;2.70;;;-3.90;99.90;;;;;;4998008;28;20265;-71
2023/12/04 08:04:36;;;;;;;7.60;3.78;;;-3.80;99.90;;;;;;5000502;28;20213;-70
2023/12/04 08:07:02;;;;;;;4.30;3.10;;;-3.80;99.90;;;;;;4995200;28;20262;-70
2023/12/04 08:09:29;;;;;;;4.75;4.35;;;-3.80;99.90;;;;;;4995345;28;20591;-71
2023/12/04 08:11:56;;;;;;;4.20;3.90;;;-3.70;99.90;;;;;;4995683;28;20235;-71
2023/12/04 08:14:24;;;;;;;6.68;3.10;;;-3.70;99.90;;;;;;4995575;28;20583;-73
2023/12/04 08:16:50;;;;;;;6.55;4.22;;;-3.60;99.90;;;;;;4995202;28;20214;-70
2023/12/04 08:19:18;;;;;;;5.53;2.50;;;-3.60;99.90;;;;;;4995711;28;20204;-71
2023/12/04 08:21:44;;;;;;;4.93;4.22;;;-3.60;99.90;;;;;;4995614;28;20285;-70
2023/12/04 08:24:11;;;;;;;3.78;3.45;;;-3.60;99.90;;;;;;4996351;28;20211;-70
2023/12/04 08:26:38;;;;;;;5.32;3.20;;;-3.60;99.90;;;;;;4995455;28;20216;-70
2023/12/04 08:29:05;;;;;;;3.13;2.35;;;-3.60;99.90;;;;;;4996308;28;20265;-71
2023/12/04 08:31:33;;;;;;;6.65;3.45;;;-3.50;99.90;;;;;;4995529;28;20615;-71
2023/12/04 08:33:59;;;;;;;5.15;3.20;;;-3.50;99.90;;;;;;4996298;28;20211;-71
2023/12/04 08:36:26;;;;;;;3.58;3.28;;;-3.60;99.90;;;;;;4995717;28;20206;-71
2023/12/04 08:38:53;;;;;;;4.75;3.50;;;-3.80;99.90;;;;;;4995708;28;20211;-71
2023/12/04 08:41:19;;;;;;;2.67;2.03;;;-3.80;99.90;;;;;;4995660;28;20250;-70
2023/12/04 08:43:46;;;;;;;4.20;2.60;;;-3.80;99.90;;;;;;4995373;28;20211;-71
2023/12/04 08:46:13;;;;;;;4.10;3.17;;;-3.80;99.90;;;;;;4995956;28;20211;-71
2023/12/04 08:48:42;;;;;;;4.63;4.05;;;-3.70;99.90;;;;;;4994990;28;20218;-71
2023/12/04 08:51:15;;;;;;;3.63;2.30;;;-3.70;99.90;;;;;;4996631;28;20637;-71
2023/12/04 08:53:42;;;;;;;3.45;3.05;;;-3.70;99.90;;;;;;4996050;28;20676;-70
2023/12/04 08:56:10;;;;;;;3.67;2.97;;;-3.70;99.90;;;;;;4996664;28;20219;-71
2023/12/04 08:58:36;;;;;;;3.67;2.67;;;-3.60;99.90;;;;;;4995224;28;20204;-70
2023/12/04 09:01:04;;;;;;;4.25;3.15;;;-3.60;99.90;;;;;;4996641;28;20707;-71
2023/12/04 09:03:32;;;;;;;3.58;3.28;;;-3.70;99.90;;;;;;4995740;28;20207;-70
2023/12/04 09:06:00;;;;;;;4.50;4.07;;;-3.60;99.90;;;;;;4996773;28;20215;-70
2023/12/04 09:08:27;;;;;;;4.47;3.80;;;-3.60;99.90;;;;;;4995868;28;20572;-70
2023/12/04 09:10:54;;;;;;;4.32;3.05;;;-3.50;99.90;;;;;;4996220;28;20223;-71
2023/12/04 09:13:20;;;;;;;3.85;3.28;;;-3.40;99.90;;;;;;4996192;28;20207;-71
2023/12/04 09:15:47;;;;;;;5.78;4.20;;;-3.20;99.90;;;;;;4995833;28;20203;-71
2023/12/04 09:18:14;;;;;;;4.10;2.78;;;-3.20;99.90;;;;;;4994012;28;20250;-71
2023/12/04 09:20:40;;;;;;;4.22;3.03;;;-3.00;99.90;;;;;;4995748;28;20215;-71
2023/12/04 09:23:09;;;;;;;5.90;3.45;;;-2.80;99.90;;;;;;4997353;28;20581;-71
2023/12/04 09:25:36;;;;;;;6.53;3.63;;;-2.60;99.90;;;;;;4996011;28;20211;-73
2023/12/04 09:28:03;;;;;;;3.83;2.53;;;-2.50;99.90;;;;;;4996921;28;20672;-71
2023/12/04 09:30:29;;;;;;;7.30;2.53;;;-2.30;99.90;;;;;;4995822;28;20769;-71
2023/12/04 09:32:56;;;;;;;5.03;3.30;;;-2.20;99.90;;;;;;4996917;28;20230;-71
2023/12/04 09:35:23;;;;;;;7.45;3.22;;;-2.10;99.90;;;;;;5002550;28;20295;-72
2023/12/04 09:37:50;;;;;;;3.17;2.47;;;-2.10;99.90;;;;;;4995643;28;20218;-72
2023/12/04 09:40:19;;;;;;;3.83;2.53;;;-2.10;99.90;;;;;;4997135;28;20285;-72
2023/12/04 09:42:46;;;;;;;6.63;3.17;;;-2.20;99.90;;;;;;4995845;28;20616;-74
2023/12/04 09:45:14;;;;;;;4.05;2.20;;;-2.20;99.90;;;;;;4997539;28;20202;-72
2023/12/04 09:47:41;;;;;;;4.13;3.08;;;-2.10;99.90;;;;;;4995769;28;20203;-71
2023/12/04 09:50:09;;;;;;;4.15;3.60;;;-2.10;99.90;;;;;;4997784;28;20210;-71
2023/12/04 09:52:36;;;;;;;3.58;2.92;;;-2.10;99.90;;;;;;4996004;28;20230;-71
2023/12/04 09:55:03;;;;;;;4.53;3.22;;;-2.10;99.90;;;;;;4997955;28;20215;-71
2023/12/04 09:57:32;;;;;;;5.57;3.22;;;-2.10;99.90;;;;;;4995456;28;20203;-71
2023/12/04 10:00:03;;;;;;;5.85;4.20;;;-2.00;99.90;;;;;;4997314;28;20213;-71
2023/12/04 10:02:30;;;;;;;6.10;3.80;;;-2.00;99.90;;;;;;4990415;28;20699;-71
2023/12/04 10:04:57;;;;;;;4.45;3.47;;;-2.00;99.90;;;;;;4996951;28;20680;-71
2023/12/04 10:07:23;;;;;;;8.52;3.33;;;-2.00;99.90;;;;;;4996458;28;20210;-71
2023/12/04 10:09:50;;;;;;;10.32;4.53;;;-1.90;99.90;;;;;;4996389;28;20591;-72
2023/12/04 10:12:21;;;;;;;3.70;3.17;;;-1.70;99.90;;;;;;4997694;28;20586;-71
2023/12/04 10:15:04;;;;;;;6.25;3.65;;;-1.50;99.90;;;;;;4996251;28;20297;-71
2023/12/04 10:17:35;;;;;;;4.88;2.97;;;-1.40;99.90;;;;;;4990188;28;20207;-71
2023/12/04 10:20:11;;;;;;;4.60;3.50;;;-1.50;99.90;;;;;;4998198;28;20291;-71
2023/12/04 10:22:39;;;;;;;3.25;2.85;;;-1.60;99.90;;;;;;4991758;28;20314;-71
2023/12/04 10:25:16;;;;;;;2.88;2.53;;;-1.60;99.90;;;;;;4998559;28;20218;-71
2023/12/04 10:27:43;;;;;;;5.35;4.85;;;-1.80;99.90;;;;;;4996428;28;20202;-71
2023/12/04 10:30:23;;;;;;;5.45;3.55;;;-1.90;99.90;;;;;;4998623;28;20257;-71
2023/12/04 10:32:50;;;;;;;3.90;2.88;;;-2.10;99.90;;;;;;4996484;28;20226;-70
2023/12/04 10:35:17;;;;;;;6.50;3.63;;;-2.10;99.90;;;;;;4998233;28;20206;-71
2023/12/04 10:37:44;;;;;;;5.57;3.17;;;-2.00;99.90;;;;;;4996120;28;20199;-71
2023/12/04 10:40:12;;;;;;;4.10;3.05;;;-2.00;99.90;;;;;;4998919;28;20301;-71
2023/12/04 10:42:39;;;;;;;4.78;2.67;;;-1.90;99.90;;;;;;4996346;28;20601;-71
2023/12/04 10:45:07;;;;;;;3.90;3.33;;;-1.80;99.90;;;;;;4998904;28;20286;-71
2023/12/04 10:47:36;;;;;;;5.82;3.75;;;-1.70;99.90;;;;;;4991246;28;20211;-72
2023/12/04 10:50:03;;;;;;;6.03;4.90;;;-1.60;99.90;;;;;;4998631;28;20211;-73
2023/12/04 10:52:32;;;;;;;8.88;3.80;;;-1.50;99.90;;;;;;4996984;28;20223;-72
2023/12/04 10:54:59;;;;;;;6.75;4.15;;;-1.30;99.90;;;;;;4997977;28;20596;-72
2023/12/04 10:57:30;;;;;;;3.75;2.88;;;-1.30;99.90;;;;;;4997682;28;20207;-73
2023/12/04 11:00:02;;;;;;;4.25;3.85;;;-1.20;99.90;;;;;;4998001;28;20566;-72
2023/12/04 11:02:33;;;;;;;5.07;3.47;;;-0.90;99.90;;;;;;4997431;28;20232;-72
2023/12/04 11:05:07;;;;;;;4.47;3.55;;;-0.50;99.90;;;;;;4998409;28;20214;-73
2023/12/04 11:07:36;;;;;;;5.00;4.57;;;0.00;99.90;;;;;;4996567;28;20208;-73
2023/12/04 11:10:05;;;;;;;3.47;2.72;;;0.30;99.90;;;;;;4999888;28;20290;-73
2023/12/04 11:12:33;;;;;;;5.65;4.20;;;0.60;99.90;;;;;;5001316;28;20815;-72
2023/12/04 11:15:04;;;;;;;3.67;2.70;;;0.50;99.90;;;;;;5002749;28;20210;-72
2023/12/04 11:17:36;;;;;;;4.50;2.63;;;0.60;99.90;;;;;;5001181;28;20238;-72
2023/12/04 11:20:10;;;;;;;4.57;3.60;;;0.40;99.90;;;;;;5002660;28;20245;-73
2023/12/04 11:22:40;;;;;;;5.70;3.67;;;0.10;99.90;;;;;;5001093;28;20222;-72
2023/12/04 11:25:08;;;;;;;4.25;3.05;;;0.00;99.90;;;;;;5002928;28;20243;-73
2023/12/04 11:27:36;;;;;;;5.65;3.85;;;0.00;99.90;;;;;;5000792;28;20551;-73
2023/12/04 11:30:03;;;;;;;4.95;2.97;;;-0.20;99.90;;;;;;5003355;28;20215;-73
2023/12/04 11:32:30;;;;;;;4.65;3.78;;;-0.10;99.90;;;;;;5002003;28;20264;-73
2023/12/04 11:35:00;;;;;;;7.78;3.60;;;-0.20;99.90;;;;;;5002117;28;20215;-73
2023/12/04 11:37:28;;;;;;;5.05;2.92;;;-0.20;99.90;;;;;;5002067;28;20593;-73
2023/12/04 11:39:56;;;;;;;5.93;4.45;;;-0.20;99.90;;;;;;5001734;28;20219;-72
2023/12/04 11:42:24;;;;;;;5.55;2.95;;;-0.20;99.90;;;;;;5003138;28;20218;-73
2023/12/04 11:44:56;;;;;;;6.85;2.97;;;-0.10;99.90;;;;;;5001471;28;20211;-73
2023/12/04 11:47:23;;;;;;;6.00;3.35;;;0.10;99.90;;;;;;5002870;28;20225;-73
2023/12/04 11:49:50;;;;;;;3.53;2.70;;;0.10;99.90;;;;;;5001179;28;20219;-73
2023/12/04 11:52:17;;;;;;;2.88;2.15;;;0.10;99.90;;;;;;5004030;28;20253;-73
2023/12/04 11:55:00;;;;;;;3.95;2.92;;;0.20;99.90;;;;;;5001119;28;20211;-73
2023/12/04 11:57:29;;;;;;;4.75;3.58;;;0.30;99.90;;;;;;4998958;28;20234;-73
2023/12/04 12:00:09;;;;;;;5.00;3.10;;;0.40;99.90;;;;;;5002121;28;20207;-72
2023/12/04 12:02:36;;;;;;;4.45;3.55;;;0.50;99.90;;;;;;5001660;28;20225;-73
2023/12/04 12:05:03;;;;;;;5.95;3.90;;;0.40;99.90;;;;;;5003224;28;20216;-73
2023/12/04 12:07:30;;;;;;;4.47;3.25;;;0.50;99.90;;;;;;5002260;28;20217;-73
2023/12/04 12:09:58;;;;;;;4.72;4.25;;;0.50;99.90;;;;;;5002172;28;20222;-73
2023/12/04 12:12:27;;;;;;;4.57;3.95;;;0.50;99.90;;;;;;5003681;28;20230;-73
2023/12/04 12:14:54;;;;;;;5.28;4.10;;;0.50;99.90;;;;;;5001898;28;20211;-73
2023/12/04 12:17:20;;;;;;;4.03;3.53;;;0.50;99.90;;;;;;5003712;28;20248;-73
2023/12/04 12:19:47;;;;;;;5.75;4.00;;;0.60;99.90;;;;;;5001353;28;20583;-73
2023/12/04 12:22:15;;;;;;;3.65;2.70;;;0.60;99.90;;;;;;4982306;28;20226;-73
2023/12/04 12:24:43;;;;;;;6.38;3.55;;;0.80;99.90;;;;;;4994170;28;20289;-73
2023/12/04 12:27:12;;;;;;;3.75;3.28;;;0.90;99.90;;;;;;4993511;28;20257;-72
2023/12/04 12:29:39;;;;;;;4.82;4.18;;;1.00;99.90;;;;;;4996620;28;20313;-72
2023/12/04 12:32:07;;;;;;;5.82;3.78;;;0.90;99.90;;;;;;4996447;28;20223;-71
2023/12/04 12:34:35;;;;;;;6.82;4.22;;;0.90;99.90;;;;;;4998144;28;20199;-72
2023/12/04 12:37:05;;;;;;;4.10;3.55;;;0.80;99.90;;;;;;4994189;28;20207;-72
2023/12/04 12:39:32;;;;;;;5.38;3.72;;;0.70;99.90;;;;;;4993007;28;20296;-72
2023/12/04 12:42:00;;;;;;;7.65;4.85;;;0.50;99.90;;;;;;4992020;28;20227;-72
2023/12/04 12:44:29;;;;;;;7.53;5.07;;;0.30;99.90;;;;;;4992596;28;20684;-73
2023/12/04 12:46:56;;;;;;;6.25;3.92;;;0.20;99.90;;;;;;4995682;28;20269;-72
2023/12/04 12:49:23;;;;;;;5.55;4.40;;;0.20;99.90;;;;;;5000635;28;20230;-72
2023/12/04 12:51:50;;;;;;;5.25;4.07;;;0.10;99.90;;;;;;4992847;28;20286;-71
2023/12/04 12:54:17;;;;;;;5.80;5.15;;;0.10;99.90;;;;;;4993896;28;20684;-72
2023/12/04 12:56:44;;;;;;;5.85;4.55;;;0.10;99.90;;;;;;4991408;28;20282;-71
2023/12/04 12:59:11;;;;;;;8.02;4.75;;;0.10;99.90;;;;;;4992007;28;20212;-71
2023/12/04 13:01:40;;;;;;;8.27;5.00;;;0.10;99.90;;;;;;4995997;28;20324;-71
2023/12/04 13:04:07;;;;;;;6.93;4.57;;;0.10;99.90;;;;;;4999571;28;20210;-71
2023/12/04 13:06:35;;;;;;;6.20;3.67;;;0.10;99.90;;;;;;4996427;28;20208;-72
2023/12/04 13:09:02;;;;;;;6.20;4.82;;;0.10;99.90;;;;;;4990139;28;20203;-72
2023/12/04 13:11:28;;;;;;;4.30;3.60;;;0.10;99.90;;;;;;4989563;28;20254;-72
2023/12/04 13:13:57;;;;;;;6.75;5.50;;;0.20;99.90;;;;;;4990557;28;20291;-71
2023/12/04 13:16:24;;;;;;;6.07;3.80;;;0.20;99.90;;;;;;4992819;28;20207;-72
2023/12/04 13:18:52;;;;;;;6.20;3.85;;;0.20;99.90;;;;;;4992037;28;20215;-72
2023/12/04 13:21:18;;;;;;;6.03;4.53;;;0.30;99.90;;;;;;4989616;28;20226;-71
2023/12/04 13:23:45;;;;;;;6.47;4.18;;;0.30;99.90;;;;;;4991444;28;20206;-71
2023/12/04 13:26:12;;;;;;;5.63;4.72;;;0.30;99.90;;;;;;4990906;28;20207;-72
2023/12/04 13:28:38;;;;;;;8.18;4.75;;;0.40;99.90;;;;;;4992776;28;20207;-70
2023/12/04 13:31:06;;;;;;;7.53;4.47;;;0.40;99.90;;;;;;4993229;28;20231;-72
2023/12/04 13:33:33;;;;;;;6.00;3.90;;;0.50;99.90;;;;;;4993594;28;20238;-72
2023/12/04 13:36:01;;;;;;;3.75;3.33;;;0.40;99.90;;;;;;4993644;28;20694;-70
2023/12/04 13:38:27;;;;;;;7.63;5.35;;;0.30;99.90;;;;;;4989428;28;20207;-70
2023/12/04 13:41:08;;;;;;;7.45;4.82;;;0.20;99.90;;;;;;4989925;28;20241;-71
2023/12/04 13:43:52;;;;;;;7.65;4.70;;;0.10;99.90;;;;;;4989916;28;20211;-71
2023/12/04 13:46:18;;;;;;;6.85;5.63;;;0.00;99.90;;;;;;4991887;28;20216;-71
2023/12/04 13:48:45;;;;;;;6.55;5.00;;;0.00;99.90;;;;;;4994346;28;20210;-71
2023/12/04 13:51:14;;;;;;;7.18;5.03;;;0.00;99.90;;;;;;4994273;28;20230;-71
2023/12/04 13:53:47;;;;;;;6.53;4.80;;;-0.10;99.90;;;;;;4988835;28;20684;-70
2023/12/04 13:56:27;;;;;;;7.68;4.35;;;0.00;99.90;;;;;;5001123;28;20858;-72
2023/12/04 13:58:57;;;;;;;16.33;6.30;;;-0.10;99.90;;;;;;4995433;28;20298;-70
2023/12/04 14:01:28;;;;;;;6.32;5.03;;;-0.20;99.90;;;;;;4993315;28;20262;-73
2023/12/04 14:04:01;;;;;;;8.65;6.13;;;-0.30;99.90;;;;;;4992915;28;20209;-72
2023/12/04 14:06:29;;;;;;;5.78;4.25;;;-0.30;99.90;;;;;;4992637;28;20213;-72
2023/12/04 14:08:57;;;;;;;8.85;5.15;;;-0.30;99.90;;;;;;4987113;28;20260;-72
2023/12/04 14:11:25;;;;;;;6.70;4.45;;;-0.30;99.90;;;;;;4989929;28;20225;-71
2023/12/04 14:13:52;;;;;;;6.50;4.55;;;-0.40;99.90;;;;;;4990411;28;20211;-71
2023/12/04 14:16:19;;;;;;;6.15;5.05;;;-0.40;99.90;;;;;;4995656;28;20216;-71
2023/12/04 14:18:46;;;;;;;8.10;4.97;;;-0.30;99.90;;;;;;4991214;28;20203;-71
2023/12/04 14:21:13;;;;;;;12.10;5.88;;;-0.40;99.90;;;;;;4992884;28;20278;-71
2023/12/04 14:23:41;;;;;;;8.70;6.32;;;-0.40;99.90;;;;;;4993293;28;20238;-71
2023/12/04 14:26:08;;;;;;;5.82;4.50;;;-0.30;99.90;;;;;;4990535;28;20697;-71
2023/12/04 14:28:35;;;;;;;8.75;4.53;;;-0.30;99.90;;;;;;4992390;28;20295;-71
2023/12/04 14:31:02;;;;;;;12.02;5.78;;;-0.30;99.90;;;;;;4993902;28;20234;-71
2023/12/04 14:33:29;;;;;;;10.13;5.72;;;-0.40;99.90;;;;;;4990044;28;20578;-70
2023/12/04 14:35:56;;;;;;;7.22;4.15;;;-0.50;99.90;;;;;;4993092;28;20210;-70
2023/12/04 14:38:23;;;;;;;12.52;6.35;;;-0.50;99.90;;;;;;4989803;28;20735;-71
2023/12/04 14:40:53;;;;;;;6.38;5.75;;;-0.60;99.90;;;;;;4990538;28;20227;-71
2023/12/04 14:43:20;;;;;;;8.32;4.30;;;-0.60;99.90;;;;;;4989945;28;20334;-71
2023/12/04 14:45:47;;;;;;;12.27;6.45;;;-0.60;99.90;;;;;;4990162;28;20684;-71
2023/12/04 14:48:14;;;;;;;8.10;3.83;;;-0.60;99.90;;;;;;4991187;28;21500;-70
2023/12/04 14:50:43;;;;;;;5.28;4.57;;;-0.60;99.90;;;;;;4992010;28;20590;-72
2023/12/04 14:53:16;;;;;;;7.32;4.53;;;-0.60;99.90;;;;;;4990582;28;20202;-72
2023/12/04 14:59:12;;;;;;;10.63;5.50;;;-0.60;99.90;;;;;;4991126;28;20249;-71
2023/12/04 15:07:40;;;;;;;9.35;5.30;;;-0.50;99.90;;;;;;4985655;28;20250;-71
2023/12/04 15:10:27;;;;;;;5.03;4.10;;;-0.50;99.90;;;;;;4988943;28;20207;-70
2023/12/04 15:16:14;;;;;;;7.78;4.72;;;-0.40;99.90;;;;;;4961050;28;20225;-72
2023/12/04 15:18:57;;;;;;;5.90;4.30;;;-0.40;99.90;;;;;;4986631;28;20211;-72
2023/12/04 15:21:23;;;;;;;5.47;4.32;;;-0.40;99.90;;;;;;4986740;28;20215;-71
2023/12/04 15:23:49;;;;;;;9.88;5.10;;;-0.40;99.90;;;;;;4985906;28;20227;-72
2023/12/04 15:26:17;;;;;;;9.87;5.73;;;-0.40;99.90;;;;;;4988661;28;20210;-70
2023/12/04 15:28:43;;;;;;;7.30;6.50;;;-0.40;99.90;;;;;;4991186;28;20215;-70
2023/12/04 15:31:11;;;;;;;10.20;5.25;;;-0.30;99.90;;;;;;4989786;28;20320;-72
2023/12/04 15:33:37;;;;;;;5.50;4.63;;;-0.30;99.90;;;;;;4989441;28;20566;-71
2023/12/04 15:36:04;;;;;;;6.60;4.83;;;-0.40;99.90;;;;;;4989551;28;20213;-71
2023/12/04 15:38:30;;;;;;;8.07;5.35;;;-0.40;99.90;;;;;;4991629;28;20226;-70
2023/12/04 15:40:57;;;;;;;10.00;6.60;;;-0.40;99.90;;;;;;4990054;28;20644;-72
2023/12/04 15:43:23;;;;;;;11.93;6.30;;;-0.40;99.90;;;;;;4991261;28;20581;-72
2023/12/04 15:45:49;;;;;;;6.20;4.90;;;-0.40;99.90;;;;;;4987409;28;20291;-70
2023/12/04 15:48:17;;;;;;;13.18;6.18;;;-0.50;99.90;;;;;;4993726;28;20813;-70
2023/12/04 15:50:44;;;;;;;4.13;3.65;;;-0.50;99.90;;;;;;4989114;28;20227;-70
2023/12/04 15:53:09;;;;;;;9.50;6.40;;;-0.50;99.90;;;;;;4991248;28;20237;-70
2023/12/04 15:55:36;;;;;;;8.47;6.17;;;-0.50;99.90;;;;;;4988599;28;20231;-70
2023/12/04 15:58:02;;;;;;;7.50;4.25;;;-0.50;99.90;;;;;;4995072;28;20684;-71
2023/12/04 16:00:29;;;;;;;8.63;5.65;;;-0.50;99.90;;;;;;4990370;28;20876;-71
2023/12/04 16:02:55;;;;;;;14.23;5.60;;;-0.40;99.90;;;;;;4991642;28;20223;-71
2023/12/04 16:05:24;;;;;;;7.13;5.50;;;-0.40;99.90;;;;;;4992439;28;20592;-71
2023/12/04 16:07:51;;;;;;;6.75;5.78;;;-0.40;99.90;;;;;;4993780;28;20239;-73
2023/12/04 16:10:17;;;;;;;9.70;7.22;;;-0.50;99.90;;;;;;4991796;28;20675;-70
2023/12/04 16:12:44;;;;;;;11.30;4.88;;;-0.50;99.90;;;;;;4995772;28;20225;-70
2023/12/04 16:15:12;;;;;;;6.57;4.80;;;-0.50;99.90;;;;;;4992726;28;20206;-71
2023/12/04 16:17:39;;;;;;;7.38;4.65;;;-0.50;99.90;;;;;;4990748;28;20207;-71
2023/12/04 16:20:09;;;;;;;9.10;4.32;;;-0.50;99.90;;;;;;4997280;28;20701;-71
2023/12/04 16:22:39;;;;;;;9.15;6.05;;;-0.40;99.90;;;;;;4992064;28;20281;-71
2023/12/04 16:25:07;;;;;;;11.93;5.57;;;-0.40;99.90;;;;;;4996449;28;20211;-71
2023/12/04 16:27:34;;;;;;;10.52;7.68;;;-0.30;99.90;;;;;;4998689;28;20214;-71
2023/12/04 16:30:01;;;;;;;9.00;5.75;;;-0.30;99.90;;;;;;4995438;28;20215;-71
2023/12/04 16:32:28;;;;;;;12.15;6.68;;;-0.30;99.90;;;;;;4990803;28;20219;-73
2023/12/04 16:34:55;;;;;;;10.52;6.30;;;-0.30;99.90;;;;;;4996671;28;20230;-73
2023/12/04 16:37:22;;;;;;;8.13;5.68;;;-0.30;99.90;;;;;;4991449;28;20250;-70
2023/12/04 16:39:50;;;;;;;9.88;6.75;;;-0.40;99.90;;;;;;4993172;28;20215;-68
2023/12/04 16:42:17;;;;;;;8.75;6.72;;;-0.50;99.90;;;;;;4994820;28;20234;-73
2023/12/04 16:44:44;;;;;;;12.57;7.32;;;-0.60;99.90;;;;;;4989584;28;20215;-73
2023/12/04 16:47:10;;;;;;;7.00;5.72;;;-0.60;99.90;;;;;;4990859;28;20214;-70
2023/12/04 16:49:37;;;;;;;14.25;10.63;;;-0.60;99.90;;;;;;4989588;28;20810;-70
2023/12/04 16:52:05;;;;;;;12.90;7.35;;;-0.60;99.90;;;;;;4991239;28;20223;-71
2023/12/04 16:54:31;;;;;;;13.77;8.05;;;-0.60;99.90;;;;;;4991510;28;20586;-70
2023/12/04 16:56:59;;;;;;;8.88;5.50;;;-0.50;99.90;;;;;;4992192;28;20215;-73
2023/12/04 16:59:26;;;;;;;12.63;8.80;;;-0.50;99.90;;;;;;4990495;28;20214;-73
2023/12/04 17:01:53;;;;;;;13.25;7.32;;;-0.50;99.90;;;;;;4994711;28;20226;-73
2023/12/04 17:04:19;;;;;;;11.25;8.20;;;-0.40;99.90;;;;;;4990199;28;20680;-73
2023/12/04 17:06:46;;;;;;;8.27;6.60;;;-0.40;99.90;;;;;;4987916;28;20226;-72
2023/12/04 17:09:14;;;;;;;12.75;8.30;;;-0.50;99.90;;;;;;4990904;28;20606;-73
2023/12/04 17:11:41;;;;;;;9.02;6.63;;;-0.40;99.90;;;;;;4993278;28;20322;-73
2023/12/04 17:14:09;;;;;;;10.27;6.05;;;-0.40;99.90;;;;;;4990333;28;20207;-73
2023/12/04 17:16:36;;;;;;;10.70;7.00;;;-0.40;99.90;;;;;;4992731;28;20211;-73